Time;durP1;ratioP1;P1;durP2;ratioP2;P2;SDS_P1;SDS_P2;PMS_P1;PMS_P2;Temp;Humidity;BMP_temperature;BMP_pressure;BME280_temperature;BME280_humidity;BME280_pressure;Samples;Min_cycle;Max_cycle;Signal;HPM_P1;HPM_P2
2023/12/27 00:02:22;;;;;;;0.90;0.67;;;;;;;-143.84;68.71;45081.44;5109878;28;20738;-57
2023/12/27 00:04:49;;;;;;;1.00;0.70;;;;;;;-143.84;68.13;45079.53;5109728;28;20443;-56
2023/12/27 00:07:16;;;;;;;0.90;0.60;;;;;;;-143.84;67.64;45104.28;5110022;28;20435;-56
2023/12/27 00:09:44;;;;;;;0.90;0.60;;;;;;;-143.84;67.24;45075.72;5109630;28;20995;-57
2023/12/27 00:12:11;;;;;;;0.90;0.57;;;;;;;-143.84;66.94;45075.72;5109978;28;20438;-57
2023/12/27 00:14:39;;;;;;;0.97;0.63;;;;;;;-143.84;66.08;45090.97;5109818;28;20439;-57
2023/12/27 00:17:06;;;;;;;1.53;0.70;;;;;;;-143.84;66.19;45102.38;5109600;28;20431;-56
2023/12/27 00:19:34;;;;;;;0.90;0.53;;;;;;;-143.84;65.89;45092.88;5109436;28;20474;-57
2023/12/27 00:22:01;;;;;;;0.90;0.50;;;;;;;-143.84;66.04;45052.88;5111043;28;20492;-57
2023/12/27 00:24:28;;;;;;;0.80;0.50;;;;;;;-143.84;65.98;45106.19;5113751;28;20435;-57
2023/12/27 00:26:55;;;;;;;0.90;0.63;;;;;;;-143.84;65.26;45129.03;5113568;28;20434;-59
2023/12/27 00:29:22;;;;;;;4.10;0.97;;;;;;;-143.84;63.29;45098.56;5113406;28;20446;-60
2023/12/27 00:31:50;;;;;;;0.90;0.60;;;;;;;-143.84;61.89;45090.97;5113597;28;20924;-59
2023/12/27 00:34:18;;;;;;;0.90;0.67;;;;;;;-143.84;59.38;45089.06;5113246;28;20447;-59
2023/12/27 00:36:45;;;;;;;0.83;0.43;;;;;;;-143.84;58.32;45094.78;5113588;28;21251;-59
2023/12/27 00:39:12;;;;;;;0.80;0.50;;;;;;;-143.84;56.92;45087.16;5113528;28;20478;-59
2023/12/27 00:41:39;;;;;;;1.20;0.73;;;;;;;-143.84;56.57;45098.56;5113446;28;20934;-58
2023/12/27 00:44:06;;;;;;;1.00;0.67;;;;;;;-143.84;57.02;45087.16;5113381;28;20525;-59
2023/12/27 00:46:33;;;;;;;1.10;1.00;;;;;;;-143.84;57.16;45096.66;5113181;28;20431;-59
2023/12/27 00:49:02;;;;;;;1.07;0.90;;;;;;;-143.84;58.16;45071.91;5113543;28;20860;-58
2023/12/27 00:51:29;;;;;;;3.10;0.67;;;;;;;-143.84;58.97;45094.78;5113228;28;20439;-59
2023/12/27 00:53:56;;;;;;;0.90;0.40;;;;;;;-143.84;59.24;45090.97;5113194;28;20928;-59
2023/12/27 00:56:23;;;;;;;1.57;0.77;;;;;;;-143.84;59.39;45094.78;5113252;28;20447;-59
2023/12/27 00:58:51;;;;;;;0.83;0.50;;;;;;;-143.84;59.18;45089.06;5113270;28;20997;-58
2023/12/27 01:01:19;;;;;;;0.90;0.50;;;;;;;-143.84;59.23;45111.91;5113050;28;20963;-59
2023/12/27 01:03:46;;;;;;;2.17;1.63;;;;;;;-143.84;59.69;45049.06;5113259;28;20434;-59
2023/12/27 01:06:14;;;;;;;0.97;0.70;;;;;;;-143.84;59.79;45117.63;5112937;28;20430;-58
2023/12/27 01:08:41;;;;;;;0.90;0.60;;;;;;;-143.84;60.31;45117.63;5112958;28;20447;-59
2023/12/27 01:11:08;;;;;;;0.80;0.50;;;;;;;-143.84;60.50;45081.44;5112856;28;20439;-58
2023/12/27 01:13:35;;;;;;;0.93;0.80;;;;;;;-143.84;60.85;45104.28;5112787;28;20863;-58
2023/12/27 01:16:03;;;;;;;1.50;0.80;;;;;;;-143.84;61.32;45087.16;5112726;28;20434;-59
2023/12/27 01:18:30;;;;;;;3.93;1.37;;;;;;;-143.84;61.18;45087.16;5112831;28;20551;-59
2023/12/27 01:20:57;;;;;;;0.90;0.60;;;;;;;-143.84;60.24;45094.78;5113028;28;20450;-59
2023/12/27 01:23:27;;;;;;;0.90;0.60;;;;;;;-143.84;59.36;45115.72;5112958;28;20449;-59
2023/12/27 01:25:54;;;;;;;2.03;0.80;;;;;;;-143.84;57.25;45102.38;5112614;28;20499;-59
2023/12/27 01:28:21;;;;;;;1.00;0.80;;;;;;;-143.84;56.65;45085.25;5112417;28;20525;-58
2023/12/27 01:30:48;;;;;;;0.90;0.60;;;;;;;-143.84;55.28;45085.25;5112259;28;20443;-59
2023/12/27 01:33:15;;;;;;;1.27;0.90;;;;;;;-143.84;53.78;45079.53;5112125;28;20469;-59
2023/12/27 01:35:44;;;;;;;0.90;0.57;;;;;;;-143.84;53.04;45085.25;5112340;28;20439;-58
2023/12/27 01:38:11;;;;;;;1.10;1.00;;;;;;;-143.84;52.67;45104.28;5112156;28;21192;-59
2023/12/27 01:40:47;;;;;;;0.80;0.50;;;;;;;-143.84;52.87;45087.16;5112313;28;20475;-58
2023/12/27 01:43:14;;;;;;;0.80;0.50;;;;;;;-143.84;52.69;45090.97;5103607;28;20440;-59
2023/12/27 01:45:41;;;;;;;1.07;0.67;;;;;;;-143.84;52.64;45083.34;5091669;28;20443;-59
2023/12/27 01:48:09;;;;;;;0.80;0.50;;;;;;;-143.84;52.76;45090.97;5091827;28;20992;-59
2023/12/27 01:50:36;;;;;;;0.80;0.50;;;;;;;-143.84;53.15;45087.16;5091970;28;20896;-59
2023/12/27 01:53:03;;;;;;;1.30;1.20;;;;;;;-143.84;53.04;45096.66;5091287;28;20971;-59
2023/12/27 01:55:30;;;;;;;1.30;0.90;;;;;;;-143.84;52.87;45102.38;5091749;28;20467;-59
2023/12/27 01:58:00;;;;;;;1.20;0.93;;;;;;;-143.84;52.41;45123.34;5091288;28;20489;-59
2023/12/27 02:00:27;;;;;;;1.17;1.07;;;;;;;-143.84;52.68;45104.28;5091346;28;20486;-59
2023/12/27 02:02:55;;;;;;;1.00;0.87;;;;;;;-143.84;52.31;45104.28;5091477;28;20436;-59
2023/12/27 02:05:22;;;;;;;0.80;0.50;;;;;;;-143.84;52.20;45096.66;5091194;28;20505;-59
2023/12/27 02:07:49;;;;;;;0.90;0.53;;;;;;;-143.84;51.80;45127.13;5091618;28;20773;-58
2023/12/27 02:10:17;;;;;;;1.03;0.93;;;;;;;-143.84;51.75;45083.34;5091408;28;20478;-59
2023/12/27 02:12:44;;;;;;;2.07;1.63;;;;;;;-143.84;51.68;45092.88;5089746;28;20447;-58
2023/12/27 02:15:12;;;;;;;0.90;0.80;;;;;;;-143.84;51.62;45089.06;5089489;28;20452;-59
2023/12/27 02:17:40;;;;;;;1.73;1.53;;;;;;;-143.84;51.93;45089.06;5090248;28;21122;-59
2023/12/27 02:20:09;;;;;;;1.20;0.80;;;;;;;-143.84;52.24;45100.47;5089772;28;21028;-59
2023/12/27 02:22:39;;;;;;;0.90;0.60;;;;;;;-143.84;52.12;45098.56;5089599;28;20953;-59
2023/12/27 02:25:08;;;;;;;1.00;0.80;;;;;;;-143.84;52.21;45085.25;5090129;28;20439;-59
2023/12/27 02:27:35;;;;;;;0.83;0.60;;;;;;;-143.84;52.18;45106.19;5090812;28;20432;-59
2023/12/27 02:30:03;;;;;;;0.80;0.50;;;;;;;-143.84;52.07;45115.72;5090869;28;20424;-59
2023/12/27 02:32:30;;;;;;;2.20;1.30;;;;;;;-143.84;52.04;45111.91;5090526;28;20497;-59
2023/12/27 02:34:57;;;;;;;0.87;0.67;;;;;;;-143.84;51.84;45106.19;5090767;28;20937;-59
2023/12/27 02:37:24;;;;;;;0.80;0.60;;;;;;;-143.84;51.81;45115.72;5090790;28;20447;-59
2023/12/27 02:39:51;;;;;;;1.23;1.13;;;;;;;-143.84;51.76;45098.56;5090283;28;20490;-59
2023/12/27 02:42:19;;;;;;;0.90;0.60;;;;;;;-143.84;51.36;45127.13;5090614;28;20971;-59
2023/12/27 02:44:47;;;;;;;0.90;0.73;;;;;;;-143.84;51.50;45096.66;5089919;28;20509;-59
2023/12/27 02:47:14;;;;;;;1.20;1.07;;;;;;;-143.84;51.79;45102.38;5090490;28;20436;-59
2023/12/27 02:49:41;;;;;;;1.10;0.70;;;;;;;-143.84;51.75;45100.47;5090552;28;20439;-59
2023/12/27 02:52:08;;;;;;;0.80;0.50;;;;;;;-143.84;51.69;45117.63;5090444;28;20789;-60
2023/12/27 02:54:36;;;;;;;1.60;0.80;;;;;;;-143.84;51.66;45096.66;5090617;28;20435;-60
2023/12/27 02:57:03;;;;;;;2.03;0.83;;;;;;;-143.84;52.10;45098.56;5090162;28;20428;-59
2023/12/27 02:59:31;;;;;;;1.10;0.90;;;;;;;-143.84;51.94;45092.88;5090104;28;20656;-59
2023/12/27 03:01:58;;;;;;;1.00;0.80;;;;;;;-143.84;51.87;45092.88;5090310;28;20453;-59
2023/12/27 03:04:25;;;;;;;1.10;1.00;;;;;;;-143.84;51.70;45094.78;5089886;28;20428;-59
2023/12/27 03:06:53;;;;;;;1.00;0.90;;;;;;;-143.84;52.04;45090.97;5090224;28;20444;-59
2023/12/27 03:09:20;;;;;;;0.90;0.50;;;;;;;-143.84;52.19;45094.78;5089947;28;20435;-59
2023/12/27 03:11:47;;;;;;;0.97;0.67;;;;;;;-143.84;51.93;45089.06;5089974;28;20829;-59
2023/12/27 03:14:14;;;;;;;1.20;0.73;;;;;;;-143.84;52.07;45090.97;5089935;28;20557;-59
2023/12/27 03:16:43;;;;;;;1.33;1.23;;;;;;;-143.84;52.05;45085.25;5089686;28;20440;-59
2023/12/27 03:19:10;;;;;;;1.00;0.90;;;;;;;-143.84;52.24;45094.78;5089888;28;20468;-59
2023/12/27 03:21:37;;;;;;;0.90;0.60;;;;;;;-143.84;52.56;45110.00;5089815;28;21003;-59
2023/12/27 03:24:06;;;;;;;1.30;0.83;;;;;;;-143.84;52.51;45106.19;5089814;28;20432;-59
2023/12/27 03:26:33;;;;;;;0.90;0.70;;;;;;;-143.84;52.70;45077.63;5089514;28;20965;-59
2023/12/27 03:29:00;;;;;;;0.93;0.60;;;;;;;-143.84;53.01;45127.13;5089582;28;20451;-59
2023/12/27 03:31:28;;;;;;;0.87;0.70;;;;;;;-143.84;52.85;45106.19;5089482;28;20866;-59
2023/12/27 03:33:57;;;;;;;0.80;0.50;;;;;;;-143.84;53.04;45090.97;5089769;28;20546;-59
2023/12/27 03:36:24;;;;;;;1.27;1.17;;;;;;;-143.84;53.07;45130.94;5090029;28;20478;-59
2023/12/27 03:38:52;;;;;;;1.10;0.80;;;;;;;-143.84;53.49;45117.63;5089714;28;20553;-59
2023/12/27 03:41:19;;;;;;;0.90;0.57;;;;;;;-143.84;53.56;45106.19;5089618;28;20475;-59
2023/12/27 03:43:46;;;;;;;1.10;0.80;;;;;;;-143.84;53.74;45106.19;5089722;28;21241;-59
2023/12/27 03:46:13;;;;;;;8.53;1.27;;;;;;;-143.84;54.07;45098.56;5089720;28;20951;-58
2023/12/27 03:48:40;;;;;;;3.50;0.97;;;;;;;-143.84;53.96;45090.97;5089416;28;20436;-58
2023/12/27 03:51:09;;;;;;;0.90;0.63;;;;;;;-143.84;54.40;45110.00;5089623;28;20456;-58
2023/12/27 03:53:36;;;;;;;1.67;1.20;;;;;;;-143.84;54.43;45140.47;5088924;28;20443;-58
2023/12/27 03:56:03;;;;;;;0.80;0.50;;;;;;;-143.84;54.41;45096.66;5089291;28;20867;-58
2023/12/27 03:58:30;;;;;;;1.00;0.80;;;;;;;-143.84;54.42;45110.00;5089050;28;20497;-58
2023/12/27 04:00:57;;;;;;;0.87;0.57;;;;;;;-143.84;54.70;45119.53;5089264;28;20440;-58
2023/12/27 04:03:24;;;;;;;2.20;1.23;;;;;;;-143.84;54.82;45111.91;5089428;28;20440;-58
2023/12/27 04:05:51;;;;;;;1.17;0.67;;;;;;;-143.84;54.72;45113.81;5089268;28;20485;-59
2023/12/27 04:08:20;;;;;;;2.40;1.60;;;;;;;-143.84;55.12;45132.84;5089069;28;20494;-59
2023/12/27 04:10:47;;;;;;;0.90;0.73;;;;;;;-143.84;54.86;45106.19;5089276;28;20447;-59
2023/12/27 04:13:14;;;;;;;2.90;1.37;;;;;;;-143.84;54.89;45121.44;5089066;28;20439;-59
2023/12/27 04:15:41;;;;;;;3.80;1.27;;;;;;;-143.84;55.44;45115.72;5088917;28;20432;-59
2023/12/27 04:18:11;;;;;;;2.07;0.80;;;;;;;-143.84;55.61;45090.97;5105768;28;20462;-59
2023/12/27 04:20:38;;;;;;;1.07;0.97;;;;;;;-143.84;55.63;45130.94;5109612;28;20485;-59
2023/12/27 04:23:05;;;;;;;1.73;1.40;;;;;;;-143.84;55.80;45111.91;5109575;28;20427;-59
2023/12/27 04:25:34;;;;;;;1.30;1.20;;;;;;;-143.84;55.70;45102.38;5109256;28;20435;-59
2023/12/27 04:28:01;;;;;;;0.93;0.80;;;;;;;-143.84;56.36;45113.81;5109379;28;20443;-59
2023/12/27 04:30:28;;;;;;;2.73;1.50;;;;;;;-143.84;55.86;45117.63;5109607;28;20446;-59
2023/12/27 04:32:55;;;;;;;1.03;0.93;;;;;;;-143.84;56.37;45115.72;5107450;28;20439;-59
2023/12/27 04:35:22;;;;;;;0.87;0.63;;;;;;;-143.84;56.45;45108.09;5091657;28;20459;-58
2023/12/27 04:37:49;;;;;;;0.80;0.40;;;;;;;-143.84;56.98;45115.72;5089099;28;20436;-59
2023/12/27 04:40:16;;;;;;;0.87;0.70;;;;;;;-143.84;57.25;45110.00;5088509;28;20923;-59
2023/12/27 04:42:45;;;;;;;0.90;0.70;;;;;;;-143.84;56.94;45117.63;5088873;28;20505;-59
2023/12/27 04:45:12;;;;;;;0.90;0.60;;;;;;;-143.84;57.24;45089.06;5088960;28;20443;-59
2023/12/27 04:47:39;;;;;;;1.20;1.10;;;;;;;-143.84;57.33;45125.22;5088824;28;20505;-58
2023/12/27 04:50:07;;;;;;;0.80;0.50;;;;;;;-143.84;57.64;45113.81;5088606;28;20439;-59
2023/12/27 04:52:35;;;;;;;0.80;0.50;;;;;;;-143.84;57.67;45111.91;5087397;28;20448;-61
2023/12/27 04:55:02;;;;;;;1.00;0.73;;;;;;;-143.84;57.78;45127.13;5087525;28;20463;-60
2023/12/27 04:57:29;;;;;;;1.00;0.90;;;;;;;-143.84;57.88;45096.66;5088027;28;20478;-61
2023/12/27 04:59:57;;;;;;;0.80;0.50;;;;;;;-143.84;57.84;45092.88;5088207;28;20479;-61
2023/12/27 05:02:24;;;;;;;1.30;1.00;;;;;;;-143.84;58.39;45115.72;5088079;28;20533;-61
2023/12/27 05:04:52;;;;;;;0.80;0.50;;;;;;;-143.84;58.72;45121.44;5087997;28;20435;-61
2023/12/27 05:07:19;;;;;;;1.80;0.70;;;;;;;-143.84;58.52;45123.34;5088072;28;20424;-61
2023/12/27 05:09:46;;;;;;;1.53;1.30;;;;;;;-143.84;58.75;45087.16;5091001;28;20448;-61
2023/12/27 05:12:13;;;;;;;0.80;0.50;;;;;;;-143.84;58.73;45132.84;5091709;28;20536;-61
2023/12/27 05:14:40;;;;;;;3.20;1.07;;;;;;;-143.84;59.24;45132.84;5091522;28;20431;-61
2023/12/27 05:17:08;;;;;;;1.17;0.97;;;;;;;-143.84;59.21;45113.81;5094746;28;20458;-61
2023/12/27 05:19:39;;;;;;;1.17;0.80;;;;;;;-143.84;59.41;45117.63;5093952;28;20479;-61
2023/12/27 05:22:06;;;;;;;1.60;1.13;;;;;;;-143.84;59.45;45090.97;5091775;28;20504;-61
2023/12/27 05:24:33;;;;;;;0.90;0.50;;;;;;;-143.84;59.87;45090.97;5091586;28;21225;-62
2023/12/27 05:27:00;;;;;;;0.90;0.67;;;;;;;-143.84;60.23;45136.66;5091715;28;20548;-61
2023/12/27 05:29:28;;;;;;;1.20;0.97;;;;;;;-143.84;60.12;45127.13;5091412;28;20436;-61
2023/12/27 05:31:55;;;;;;;0.90;0.70;;;;;;;-143.84;60.66;45111.91;5091592;28;20448;-62
2023/12/27 05:34:24;;;;;;;1.20;0.80;;;;;;;-143.84;60.87;45104.28;5091438;28;20452;-61
2023/12/27 05:36:51;;;;;;;1.10;1.00;;;;;;;-143.84;60.89;45115.72;5091329;28;20444;-61
2023/12/27 05:39:18;;;;;;;2.47;1.60;;;;;;;-143.84;61.55;45136.66;5091031;28;20499;-61
2023/12/27 05:41:45;;;;;;;1.10;0.80;;;;;;;-143.84;61.50;45121.44;5091077;28;20855;-61
2023/12/27 05:44:12;;;;;;;0.80;0.50;;;;;;;-143.84;61.81;45113.81;5091005;28;20444;-61
2023/12/27 05:46:40;;;;;;;1.10;0.70;;;;;;;-143.84;61.98;45104.28;5091298;28;20497;-61
2023/12/27 05:49:07;;;;;;;0.80;0.50;;;;;;;-143.84;61.95;45123.34;5090921;28;20504;-61
2023/12/27 05:51:35;;;;;;;1.10;0.77;;;;;;;-143.84;61.95;45106.19;5090776;28;20940;-61
2023/12/27 05:54:03;;;;;;;1.57;1.10;;;;;;;-143.84;62.26;45108.09;5091188;28;20862;-62
2023/12/27 05:56:30;;;;;;;1.33;1.23;;;;;;;-143.84;62.07;45117.63;5090791;28;20440;-61
2023/12/27 05:58:57;;;;;;;0.80;0.50;;;;;;;-143.84;61.81;45121.44;5090716;28;20448;-61
2023/12/27 06:01:24;;;;;;;0.90;0.70;;;;;;;-143.84;61.95;45111.91;5090505;28;20540;-61
2023/12/27 06:03:51;;;;;;;0.90;0.50;;;;;;;-143.84;61.72;45129.03;5090919;28;20859;-61
2023/12/27 06:06:18;;;;;;;1.20;1.10;;;;;;;-143.84;62.23;45117.63;5090737;28;20428;-61
2023/12/27 06:08:47;;;;;;;0.93;0.63;;;;;;;-143.84;62.40;45125.22;5090736;28;20444;-61
2023/12/27 06:11:14;;;;;;;0.80;0.50;;;;;;;-143.84;62.41;45102.38;5090634;28;20501;-61
2023/12/27 06:13:41;;;;;;;0.90;0.70;;;;;;;-143.84;62.39;45090.97;5090657;28;20440;-61
2023/12/27 06:16:10;;;;;;;1.60;0.90;;;;;;;-143.84;62.56;45121.44;5090495;28;20448;-61
2023/12/27 06:18:37;;;;;;;1.00;0.60;;;;;;;-143.84;62.54;45110.00;5090125;28;20428;-61
2023/12/27 06:21:05;;;;;;;1.63;1.47;;;;;;;-143.84;62.63;45111.91;5089313;28;21081;-61
2023/12/27 06:23:32;;;;;;;0.90;0.73;;;;;;;-143.84;62.54;45104.28;5090230;28;20436;-61
2023/12/27 06:26:01;;;;;;;0.90;0.67;;;;;;;-143.84;62.48;45117.63;5090365;28;20802;-61
2023/12/27 06:28:28;;;;;;;1.10;0.70;;;;;;;-143.84;62.55;45117.63;5090186;28;20446;-61
2023/12/27 06:30:55;;;;;;;0.83;0.57;;;;;;;-143.84;62.57;45113.81;5090129;28;20428;-61
2023/12/27 06:33:22;;;;;;;0.90;0.63;;;;;;;-143.84;62.56;45117.63;5090019;28;20447;-61
2023/12/27 06:35:49;;;;;;;15.83;1.67;;;;;;;-143.84;62.51;45096.66;5089992;28;20428;-61
2023/12/27 06:38:16;;;;;;;1.20;0.97;;;;;;;-143.84;62.42;45111.91;5089700;28;20443;-61
2023/12/27 06:40:44;;;;;;;1.00;0.70;;;;;;;-143.84;62.30;45110.00;5089576;28;20504;-61
2023/12/27 06:43:12;;;;;;;0.90;0.53;;;;;;;-143.84;62.12;45134.75;5089868;28;20443;-62
2023/12/27 06:45:40;;;;;;;1.10;0.80;;;;;;;-143.84;61.41;45130.94;5089670;28;20443;-61
2023/12/27 06:48:07;;;;;;;15.07;1.70;;;;;;;-143.84;61.17;45096.66;5089938;28;20468;-61
2023/12/27 06:50:35;;;;;;;1.00;0.67;;;;;;;-143.84;60.59;45104.28;5089324;28;20501;-62
2023/12/27 06:53:02;;;;;;;6.70;1.47;;;;;;;-143.84;60.09;45111.91;5088882;28;21026;-62
2023/12/27 06:55:29;;;;;;;1.73;1.23;;;;;;;-143.84;59.58;45121.44;5088705;28;20436;-62
2023/12/27 06:57:56;;;;;;;0.87;0.60;;;;;;;-143.84;58.89;45111.91;5089294;28;20436;-62
2023/12/27 07:00:24;;;;;;;0.90;0.70;;;;;;;-143.84;58.58;45085.25;5089374;28;20479;-60
2023/12/27 07:02:51;;;;;;;1.80;1.70;;;;;;;-143.84;57.96;45098.56;5089069;28;20448;-60
2023/12/27 07:05:19;;;;;;;1.03;0.93;;;;;;;-143.84;57.55;45077.63;5089151;28;20432;-60
2023/12/27 07:07:47;;;;;;;0.93;0.60;;;;;;;-143.84;57.25;45117.63;5089583;28;20435;-60
2023/12/27 07:10:14;;;;;;;0.83;0.53;;;;;;;-143.84;56.76;45083.34;5089555;28;20440;-60
2023/12/27 07:12:41;;;;;;;1.10;1.00;;;;;;;-143.84;56.78;45115.72;5089379;28;20863;-60
2023/12/27 07:15:10;;;;;;;0.80;0.60;;;;;;;-143.84;56.82;45100.47;5089521;28;20432;-60
2023/12/27 07:17:38;;;;;;;1.13;0.80;;;;;;;-143.84;56.14;45092.88;5089635;28;20452;-60
2023/12/27 07:20:07;;;;;;;3.97;3.67;;;;;;;-143.84;56.23;45087.16;5089278;28;20530;-60
2023/12/27 07:22:34;;;;;;;1.53;1.43;;;;;;;-143.84;56.21;45089.06;5089117;28;20953;-60
2023/12/27 07:25:01;;;;;;;0.93;0.60;;;;;;;-143.84;55.91;45104.28;5089188;28;20933;-60
2023/12/27 07:27:28;;;;;;;1.10;0.73;;;;;;;-143.84;55.73;45081.44;5088985;28;20446;-60
2023/12/27 07:29:55;;;;;;;1.00;0.80;;;;;;;-143.84;54.95;45106.19;5089151;28;20853;-60
2023/12/27 07:32:22;;;;;;;1.20;1.10;;;;;;;-143.84;54.51;45125.22;5088809;28;20821;-60
2023/12/27 07:34:57;;;;;;;1.50;1.40;;;;;;;-143.84;53.89;45085.25;5089251;28;20440;-60
2023/12/27 07:37:24;;;;;;;1.20;0.80;;;;;;;-143.84;53.07;45094.78;5088937;28;20534;-61
2023/12/27 07:39:51;;;;;;;0.87;0.57;;;;;;;-143.84;52.30;45085.25;5088616;28;20836;-61
2023/12/27 07:42:19;;;;;;;1.50;1.10;;;;;;;-143.84;51.67;45089.06;5088792;28;20447;-61
2023/12/27 07:44:46;;;;;;;3.77;1.67;;;;;;;-143.84;51.87;45087.16;5088691;28;20500;-61
2023/12/27 07:47:13;;;;;;;1.73;0.97;;;;;;;-143.84;51.67;45092.88;5088585;28;20478;-61
2023/12/27 07:49:40;;;;;;;0.90;0.80;;;;;;;-143.84;51.44;45094.78;5089028;28;20428;-60
2023/12/27 07:52:09;;;;;;;1.80;1.07;;;;;;;-143.84;51.03;45087.16;5088665;28;20451;-61
2023/12/27 07:54:37;;;;;;;0.87;0.67;;;;;;;-143.84;50.19;45085.25;5088823;28;20447;-61
2023/12/27 07:57:04;;;;;;;1.43;0.70;;;;;;;-143.84;49.35;45096.66;5088739;28;20443;-61
2023/12/27 07:59:32;;;;;;;1.07;0.97;;;;;;;-143.84;49.23;45081.44;5088454;28;20472;-61
2023/12/27 08:01:59;;;;;;;0.90;0.70;;;;;;;-143.84;48.61;45052.88;5088506;28;20480;-61
2023/12/27 08:04:26;;;;;;;1.27;0.80;;;;;;;-143.84;47.62;45079.53;5088709;28;20497;-61
2023/12/27 08:06:54;;;;;;;1.33;0.67;;;;;;;-143.84;47.02;45077.63;5088850;28;20521;-61
2023/12/27 08:09:26;;;;;;;0.90;0.70;;;;;;;-143.84;46.52;45087.16;5088869;28;20874;-61
2023/12/27 08:11:53;;;;;;;3.87;1.10;;;;;;;-143.84;46.16;45081.44;5088572;28;20840;-61
2023/12/27 08:14:20;;;;;;;0.80;0.60;;;;;;;-143.84;45.93;45047.16;5088393;28;20435;-61
2023/12/27 08:16:51;;;;;;;0.90;0.70;;;;;;;-143.84;45.75;45094.78;5088237;28;20451;-61
2023/12/27 08:19:18;;;;;;;0.90;0.70;;;;;;;-143.84;45.49;45077.63;5088195;28;20439;-61
2023/12/27 08:21:45;;;;;;;7.20;1.27;;;;;;;-143.84;45.44;45087.16;5088460;28;20550;-61
2023/12/27 08:24:12;;;;;;;0.90;0.67;;;;;;;-143.84;44.73;45062.41;5088451;28;20497;-61
2023/12/27 08:26:41;;;;;;;0.90;0.50;;;;;;;-143.84;44.43;45041.44;5088308;28;20851;-61
2023/12/27 08:29:08;;;;;;;0.80;0.50;;;;;;;-143.84;44.81;45058.59;5088422;28;20525;-61
2023/12/27 08:31:35;;;;;;;2.50;1.13;;;;;;;-143.84;44.83;45089.06;5088311;28;20444;-61
2023/12/27 08:34:03;;;;;;;0.80;0.50;;;;;;;-143.84;44.28;45066.22;5088011;28;20969;-61
2023/12/27 08:36:30;;;;;;;1.07;0.63;;;;;;;-143.84;44.50;45066.22;5088080;28;20944;-61
2023/12/27 08:38:57;;;;;;;1.10;0.70;;;;;;;-143.84;44.74;45043.34;5088113;28;20447;-61
2023/12/27 08:41:25;;;;;;;1.37;0.70;;;;;;;-143.84;44.16;45070.00;5088171;28;21019;-61
2023/12/27 08:43:54;;;;;;;1.73;1.27;;;;;;;-143.84;44.15;45058.59;5090679;28;20860;-61
2023/12/27 08:46:21;;;;;;;1.00;0.73;;;;;;;-143.84;44.10;45081.44;5092246;28;20934;-61
2023/12/27 08:48:48;;;;;;;1.57;1.40;;;;;;;-143.84;43.39;45070.00;5091839;28;20435;-62
2023/12/27 08:51:16;;;;;;;1.00;0.90;;;;;;;-143.84;42.79;45052.88;5091831;28;20443;-62
2023/12/27 08:53:43;;;;;;;1.77;0.83;;;;;;;-143.84;42.96;45071.91;5091666;28;20470;-61
2023/12/27 08:56:10;;;;;;;1.00;0.87;;;;;;;-143.84;42.73;45031.94;5092136;28;20531;-62
2023/12/27 08:58:37;;;;;;;1.10;0.90;;;;;;;-143.84;42.59;45050.97;5092080;28;20489;-61
2023/12/27 09:01:06;;;;;;;0.97;0.87;;;;;;;-143.84;42.02;45050.97;5091512;28;20475;-61
2023/12/27 09:03:33;;;;;;;0.80;0.50;;;;;;;-143.84;42.45;45041.44;5091587;28;20941;-61
2023/12/27 09:06:00;;;;;;;0.80;0.50;;;;;;;-143.84;42.17;45054.78;5091647;28;20434;-61
2023/12/27 09:08:27;;;;;;;1.00;0.90;;;;;;;-143.84;42.51;45026.22;5091511;28;20442;-61
2023/12/27 09:10:54;;;;;;;1.40;0.70;;;;;;;-143.84;42.24;45062.41;5091459;28;20428;-61
2023/12/27 09:13:21;;;;;;;0.90;0.50;;;;;;;-143.84;42.73;45047.16;5091643;28;20467;-61
2023/12/27 09:15:48;;;;;;;0.87;0.60;;;;;;;-143.84;42.96;45068.13;5091700;28;20428;-61
2023/12/27 09:18:17;;;;;;;2.70;1.27;;;;;;;-143.84;42.52;45064.31;5091525;28;20435;-61
2023/12/27 09:20:45;;;;;;;0.90;0.73;;;;;;;-143.84;42.15;45083.34;5091264;28;20479;-61
2023/12/27 09:23:12;;;;;;;0.90;0.70;;;;;;;-143.84;42.19;45045.25;5091336;28;20491;-60
2023/12/27 09:25:40;;;;;;;1.00;0.87;;;;;;;-143.84;42.27;45064.31;5091220;28;20960;-60
2023/12/27 09:28:08;;;;;;;1.30;1.17;;;;;;;-143.84;42.91;45041.44;5091482;28;20467;-61
2023/12/27 09:30:35;;;;;;;1.30;1.00;;;;;;;-143.84;42.27;45062.41;5090774;28;20456;-60
2023/12/27 09:33:02;;;;;;;0.90;0.63;;;;;;;-143.84;42.25;45064.31;5091405;28;20857;-61
2023/12/27 09:35:31;;;;;;;1.50;1.10;;;;;;;-143.84;41.47;45047.16;5110770;28;20450;-61
2023/12/27 09:37:58;;;;;;;0.90;0.50;;;;;;;-143.84;42.22;45049.06;5107417;28;20451;-61
2023/12/27 09:40:25;;;;;;;1.10;0.83;;;;;;;-143.84;41.28;45047.16;5090984;28;20548;-60
2023/12/27 09:42:54;;;;;;;0.90;0.70;;;;;;;-143.84;41.27;45052.88;5091220;28;20941;-60
2023/12/27 09:45:23;;;;;;;1.33;1.00;;;;;;;-143.84;41.87;45037.66;5090887;28;20520;-61
2023/12/27 09:47:55;;;;;;;0.90;0.60;;;;;;;-143.84;41.65;45049.06;5091056;28;20433;-60
2023/12/27 09:50:22;;;;;;;0.93;0.80;;;;;;;-143.84;41.19;45039.53;5091055;28;20475;-60
2023/12/27 09:52:52;;;;;;;0.90;0.63;;;;;;;-143.84;40.31;45049.06;5090747;28;21000;-61
2023/12/27 09:55:19;;;;;;;1.00;0.90;;;;;;;-143.84;39.90;45035.75;5090562;28;20436;-61
2023/12/27 09:57:50;;;;;;;1.50;0.70;;;;;;;-143.84;39.96;45045.25;5090580;28;20502;-61
2023/12/27 10:00:19;;;;;;;1.97;1.20;;;;;;;-143.84;40.03;45037.66;5090553;28;20440;-61
2023/12/27 10:02:47;;;;;;;0.90;0.70;;;;;;;-143.84;40.00;45066.22;5090872;28;20483;-60
2023/12/27 10:05:20;;;;;;;0.97;0.87;;;;;;;-143.84;40.20;45050.97;5090717;28;20439;-60
2023/12/27 10:07:47;;;;;;;2.00;1.10;;;;;;;-143.84;40.26;45035.75;5090610;28;20436;-61
2023/12/27 10:10:18;;;;;;;1.50;1.07;;;;;;;-143.84;39.92;45045.25;5090347;28;20502;-61
2023/12/27 10:12:46;;;;;;;1.00;0.90;;;;;;;-143.84;39.29;45030.03;5090163;28;20492;-61
2023/12/27 10:15:14;;;;;;;3.63;1.70;;;;;;;-143.84;39.06;45022.41;5090254;28;20439;-61
2023/12/27 10:17:41;;;;;;;0.90;0.60;;;;;;;-143.84;38.98;45037.66;5090372;28;20947;-60
2023/12/27 10:20:11;;;;;;;0.90;0.60;;;;;;;-143.84;39.00;45028.13;5090290;28;20530;-61
2023/12/27 10:22:38;;;;;;;1.20;0.73;;;;;;;-143.84;38.69;45041.44;5090152;28;20576;-61
2023/12/27 10:25:08;;;;;;;1.33;1.13;;;;;;;-143.84;38.98;45018.59;5090156;28;20948;-61
2023/12/27 10:27:39;;;;;;;2.30;1.60;;;;;;;-143.84;38.95;45043.34;5090146;28;20517;-61
2023/12/27 10:30:10;;;;;;;1.00;0.80;;;;;;;-143.84;39.03;45020.50;5090447;28;20451;-61
2023/12/27 10:32:39;;;;;;;1.00;0.90;;;;;;;-143.84;38.79;45037.66;5090271;28;20487;-61
2023/12/27 10:35:09;;;;;;;1.30;1.20;;;;;;;-143.84;38.37;45030.03;5090136;28;20451;-60
2023/12/27 10:37:39;;;;;;;1.70;0.70;;;;;;;-143.84;38.15;45035.75;5089855;28;20444;-60
2023/12/27 10:40:07;;;;;;;1.20;1.10;;;;;;;-143.84;38.51;45033.84;5090005;28;20510;-61
2023/12/27 10:42:35;;;;;;;1.00;0.77;;;;;;;-143.84;38.95;45018.59;5089520;28;20515;-61
2023/12/27 10:45:03;;;;;;;1.20;1.10;;;;;;;-143.84;38.66;45030.03;5089717;28;20431;-61
2023/12/27 10:47:32;;;;;;;1.10;1.00;;;;;;;-143.84;38.04;45020.50;5089713;28;20541;-61
2023/12/27 10:50:02;;;;;;;0.80;0.60;;;;;;;-143.84;38.55;45033.84;5089825;28;20440;-61
2023/12/27 10:52:30;;;;;;;1.03;0.67;;;;;;;-143.84;38.42;45031.94;5089711;28;20444;-61
2023/12/27 10:55:00;;;;;;;0.90;0.70;;;;;;;-143.84;38.46;45052.88;5090277;28;20506;-61
2023/12/27 10:57:28;;;;;;;1.63;0.70;;;;;;;-143.84;38.77;45024.31;5089891;28;20431;-61
2023/12/27 10:59:56;;;;;;;1.20;0.80;;;;;;;-143.84;38.68;45020.50;5089559;28;20444;-61
2023/12/27 11:02:26;;;;;;;1.00;0.70;;;;;;;-143.84;38.42;45033.84;5089485;28;20475;-60
2023/12/27 11:04:54;;;;;;;1.17;1.07;;;;;;;-143.84;38.28;45030.03;5089283;28;20432;-60
2023/12/27 11:07:26;;;;;;;1.20;0.70;;;;;;;-143.84;38.21;45033.84;5088962;28;20447;-61
2023/12/27 11:09:56;;;;;;;1.20;1.10;;;;;;;-143.84;37.77;45031.94;5089331;28;20444;-61
2023/12/27 11:12:25;;;;;;;2.60;0.60;;;;;;;-143.84;38.08;45026.22;5089248;28;20440;-61
2023/12/27 11:14:54;;;;;;;1.83;1.43;;;;;;;-143.84;37.56;45041.44;5089359;28;20467;-61
2023/12/27 11:17:23;;;;;;;0.93;0.83;;;;;;;-143.84;38.32;45026.22;5089383;28;20451;-61
2023/12/27 11:19:54;;;;;;;0.90;0.63;;;;;;;-143.84;38.41;45035.75;5089450;28;20440;-61